createdAt,value
2022-08-04T00:01:04.768Z,21.70
2022-08-04T00:03:47.841Z,21.70
2022-08-04T00:06:45.827Z,21.70
2022-08-04T00:09:53.625Z,21.70
2022-08-04T00:12:31.275Z,21.50
2022-08-04T00:15:01.797Z,21.40
2022-08-04T00:17:49.338Z,21.50
2022-08-04T00:20:19.689Z,21.50
2022-08-04T00:22:48.981Z,21.50
2022-08-04T00:25:16.909Z,21.30
2022-08-04T00:27:44.112Z,21.20
2022-08-04T00:30:11.503Z,21.30
2022-08-04T00:32:41.342Z,21.20
2022-08-04T00:35:15.281Z,21.10
2022-08-04T00:37:45.610Z,20.90
2022-08-04T00:40:35.462Z,21.00
2022-08-04T00:43:46.724Z,21.10
2022-08-04T00:47:13.729Z,21.10
2022-08-04T00:50:10.076Z,21.00
2022-08-04T00:53:01.071Z,21.00
2022-08-04T00:56:07.993Z,21.00
2022-08-04T00:58:47.754Z,20.90
2022-08-04T01:01:39.871Z,20.90
2022-08-04T01:04:50.393Z,20.90
2022-08-04T01:07:49.921Z,20.90
2022-08-04T01:10:41.988Z,20.80
2022-08-04T01:13:47.407Z,20.80
2022-08-04T01:16:17.456Z,21.00
2022-08-04T01:19:00.492Z,20.80
2022-08-04T01:22:06.147Z,20.60
2022-08-04T01:25:12.349Z,20.60
2022-08-04T01:28:37.236Z,20.60
2022-08-04T01:31:34.415Z,20.60
2022-08-04T01:34:05.717Z,20.40
2022-08-04T01:36:35.943Z,20.40
2022-08-04T01:39:24.854Z,20.40
2022-08-04T01:41:58.023Z,20.30
2022-08-04T01:44:27.837Z,20.20
2022-08-04T01:46:55.237Z,20.20
2022-08-04T01:49:28.168Z,20.20
2022-08-04T01:51:56.899Z,20.20
2022-08-04T01:54:25.142Z,20.20
2022-08-04T01:56:53.987Z,20.20
2022-08-04T01:59:22.663Z,20.20
2022-08-04T02:01:49.882Z,20.00
2022-08-04T02:04:23.386Z,20.10
2022-08-04T02:07:45.979Z,20.20
2022-08-04T02:10:29.230Z,20.10
2022-08-04T02:13:19.500Z,20.00
2022-08-04T02:16:17.294Z,19.90
2022-08-04T02:19:14.604Z,19.80
2022-08-04T02:21:44.521Z,19.70
2022-08-04T02:24:16.226Z,19.80
2022-08-04T02:26:49.057Z,19.80
2022-08-04T02:29:45.029Z,19.90
2022-08-04T02:32:19.580Z,19.70
2022-08-04T02:35:00.705Z,19.80
2022-08-04T02:37:31.475Z,19.80
2022-08-04T02:40:01.541Z,19.70
2022-08-04T02:42:30.144Z,19.60
2022-08-04T02:44:59.478Z,19.60
2022-08-04T02:48:08.137Z,19.60
2022-08-04T02:50:28.625Z,19.70
2022-08-04T02:53:00.667Z,19.60
2022-08-04T02:55:29.982Z,19.50
2022-08-04T02:57:58.820Z,19.50
2022-08-04T03:00:26.734Z,19.50
2022-08-04T03:03:23.240Z,19.50
2022-08-04T03:06:39.988Z,19.50
2022-08-04T03:09:51.262Z,19.30
2022-08-04T03:12:58.891Z,19.30
2022-08-04T03:16:04.912Z,19.20
2022-08-04T03:19:09.031Z,19.20
2022-08-04T03:22:25.508Z,19.20
2022-08-04T03:25:30.203Z,19.00
2022-08-04T03:28:44.731Z,19.00
2022-08-04T03:31:52.931Z,19.00
2022-08-04T03:34:55.702Z,19.00
2022-08-04T03:38:02.491Z,19.00
2022-08-04T03:41:14.883Z,18.90
2022-08-04T03:44:32.942Z,19.00
2022-08-04T03:51:32.269Z,18.90
2022-08-04T03:54:37.262Z,19.00
2022-08-04T03:57:32.891Z,18.80
2022-08-04T04:00:19.864Z,18.80
2022-08-04T04:03:28.666Z,18.80
2022-08-04T04:06:45.314Z,18.70
2022-08-04T04:10:05.080Z,18.70
2022-08-04T04:13:25.080Z,18.60
2022-08-04T04:16:20.441Z,18.70
2022-08-04T04:19:41.298Z,18.80
2022-08-04T05:00:04.207Z,19.00
2022-08-04T05:23:23.416Z,19.60
2022-08-04T05:25:59.798Z,19.60
2022-08-04T05:28:39.552Z,19.70
2022-08-04T05:31:12.637Z,19.70
2022-08-04T05:33:55.737Z,19.70
2022-08-04T05:36:41.115Z,19.70
2022-08-04T05:39:15.686Z,19.80
2022-08-04T05:41:48.177Z,19.90
2022-08-04T05:44:24.933Z,20.00
2022-08-04T05:46:55.703Z,20.10
2022-08-04T05:49:24.849Z,20.20
2022-08-04T05:51:54.003Z,20.40
2022-08-04T05:54:23.001Z,20.60
2022-08-04T05:56:51.797Z,20.70
2022-08-04T05:59:20.693Z,20.90
2022-08-04T06:01:55.418Z,21.20
2022-08-04T06:04:30.321Z,21.00
2022-08-04T06:06:57.643Z,20.90
2022-08-04T06:09:24.834Z,20.90
2022-08-04T06:12:00.747Z,21.20
2022-08-04T06:14:40.545Z,21.30
2022-08-04T06:18:33.201Z,21.40
2022-08-04T06:20:19.519Z,21.50
2022-08-04T06:22:49.537Z,21.50
2022-08-04T06:25:21.050Z,21.70
2022-08-04T06:27:49.394Z,21.90
2022-08-04T06:30:19.210Z,22.30
2022-08-04T06:32:48.625Z,22.10
2022-08-04T06:35:19.758Z,22.10
2022-08-04T06:37:48.243Z,22.20
2022-08-04T06:40:30.847Z,22.30
2022-08-04T06:43:02.767Z,22.40
2022-08-04T06:45:31.284Z,22.40
2022-08-04T06:47:59.581Z,22.60
2022-08-04T06:51:29.345Z,22.80
2022-08-04T06:53:15.861Z,23.00
2022-08-04T06:55:45.269Z,22.90
2022-08-04T06:58:13.378Z,23.00
2022-08-04T07:00:43.447Z,23.30
2022-08-04T07:03:11.568Z,23.60
2022-08-04T07:05:40.121Z,23.60
2022-08-04T07:08:09.754Z,23.80
2022-08-04T07:10:37.377Z,23.90
2022-08-04T07:13:05.270Z,24.10
2022-08-04T07:15:33.950Z,24.10
2022-08-04T07:18:03.712Z,24.30
2022-08-04T07:20:35.733Z,24.40
2022-08-04T07:23:07.689Z,24.50
2022-08-04T07:26:00.645Z,24.50
2022-08-04T07:28:28.695Z,24.60
2022-08-04T07:30:57.466Z,24.70
2022-08-04T07:33:25.944Z,24.90
2022-08-04T07:36:04.499Z,24.70
2022-08-04T07:38:37.694Z,24.90
2022-08-04T07:41:37.064Z,25.10
2022-08-04T07:44:05.291Z,25.60
2022-08-04T07:46:32.618Z,25.90
2022-08-04T07:49:03.718Z,25.70
2022-08-04T07:51:31.488Z,26.10
2022-08-04T07:54:00.462Z,26.40
2022-08-04T07:56:28.636Z,26.20
2022-08-04T07:58:56.102Z,26.30
2022-08-04T08:01:27.041Z,26.20
2022-08-04T08:03:56.622Z,26.40
2022-08-04T08:06:32.126Z,26.70
2022-08-04T08:09:13.575Z,27.00
2022-08-04T08:12:38.809Z,26.90
2022-08-04T08:14:36.361Z,27.10
2022-08-04T08:17:04.727Z,27.10
2022-08-04T08:19:33.210Z,27.30
2022-08-04T08:22:01.939Z,27.90
2022-08-04T08:24:30.887Z,28.00
2022-08-04T08:26:58.923Z,28.10
2022-08-04T08:29:26.969Z,28.20
2022-08-04T08:31:55.579Z,27.90
2022-08-04T08:34:28.601Z,27.80
2022-08-04T08:37:09.784Z,28.10
2022-08-04T08:39:46.236Z,28.30
2022-08-04T08:42:47.597Z,28.90
2022-08-04T08:46:33.146Z,28.90
2022-08-04T08:50:01.125Z,28.30
2022-08-04T08:53:10.013Z,29.40
2022-08-04T08:56:13.254Z,29.60
2022-08-04T09:20:50.166Z,29.60
2022-08-04T09:23:28.352Z,30.40
2022-08-04T09:26:32.102Z,30.90
2022-08-04T09:29:20.774Z,30.90
2022-08-04T09:32:38.565Z,30.70
2022-08-04T09:35:40.635Z,30.50
2022-08-04T09:38:29.486Z,31.20
2022-08-04T09:41:20.573Z,30.90
2022-08-04T09:44:52.101Z,31.60
2022-08-04T09:47:46.878Z,31.30
2022-08-04T09:50:50.014Z,31.60
2022-08-04T09:53:53.804Z,31.70
2022-08-04T09:56:32.450Z,32.00
2022-08-04T09:59:36.273Z,32.50
2022-08-04T10:02:08.199Z,33.20
2022-08-04T10:04:39.631Z,32.50
2022-08-04T10:07:37.968Z,32.70
2022-08-04T10:10:36.063Z,33.10
2022-08-04T10:13:38.459Z,32.20
2022-08-04T10:16:47.910Z,33.10
2022-08-04T10:19:36.790Z,33.40
2022-08-04T10:22:49.691Z,34.30
2022-08-04T10:28:55.616Z,34.10
2022-08-04T10:31:32.866Z,34.20
2022-08-04T10:34:17.818Z,33.70
2022-08-04T10:37:10.975Z,33.30
2022-08-04T10:49:16.558Z,35.30
2022-08-04T10:52:09.180Z,35.90
2022-08-04T10:55:14.840Z,34.60
2022-08-04T10:57:54.255Z,35.00
2022-08-04T11:00:26.772Z,36.60
2022-08-04T11:03:19.371Z,36.60
2022-08-04T11:06:05.053Z,34.90
2022-08-04T11:12:00.365Z,34.20
2022-08-04T11:14:50.398Z,34.30
2022-08-04T11:17:26.355Z,34.90
2022-08-04T11:20:33.384Z,34.70
2022-08-04T11:23:15.944Z,34.90
2022-08-04T11:26:13.438Z,35.30
2022-08-04T11:29:12.735Z,37.10
2022-08-04T11:31:44.757Z,36.30
2022-08-04T11:34:25.985Z,36.10
2022-08-04T11:47:41.250Z,35.70
2022-08-04T11:51:02.478Z,36.50
2022-08-04T11:53:37.532Z,37.30
2022-08-04T11:56:11.304Z,38.40
2022-08-04T11:58:39.690Z,39.80
2022-08-04T12:01:49.391Z,38.60
2022-08-04T12:04:43.412Z,39.40
2022-08-04T12:07:45.175Z,37.80
2022-08-04T12:10:44.902Z,38.40
2022-08-04T12:13:40.902Z,38.80
2022-08-04T12:16:30.636Z,38.10
2022-08-04T12:19:12.331Z,38.90
2022-08-04T12:21:55.929Z,38.20
2022-08-04T12:24:32.873Z,37.00
2022-08-04T12:50:26.104Z,40.30
2022-08-04T12:53:04.356Z,40.90
2022-08-04T12:55:35.376Z,40.30
2022-08-04T12:58:11.782Z,39.20
2022-08-04T13:00:41.730Z,38.00
2022-08-04T13:03:12.651Z,39.50
2022-08-04T13:05:41.964Z,40.20
2022-08-04T13:08:13.388Z,38.30
2022-08-04T13:10:46.874Z,37.90
2022-08-04T13:13:27.139Z,37.80
2022-08-04T13:16:03.034Z,37.50
2022-08-04T13:18:34.778Z,38.50
2022-08-04T13:21:49.463Z,39.80
2022-08-04T13:24:21.098Z,40.50
